createdAt,value
2022-10-05T00:01:33.635Z,76.65
2022-10-05T00:04:23.752Z,77.32
2022-10-05T00:07:16.048Z,75.16
2022-10-05T00:09:56.869Z,74.70
2022-10-05T00:12:25.348Z,74.57
2022-10-05T00:14:57.806Z,74.06
2022-10-05T00:17:29.122Z,77.70
2022-10-05T00:19:56.587Z,75.95
2022-10-05T00:22:35.439Z,75.39
2022-10-05T00:25:13.163Z,77.50
2022-10-05T00:27:40.496Z,76.79
2022-10-05T00:30:18.277Z,76.13
2022-10-05T00:32:46.218Z,76.32
2022-10-05T00:35:15.944Z,75.53
2022-10-05T00:38:39.861Z,78.24
2022-10-05T00:41:09.664Z,76.78
2022-10-05T00:44:20.190Z,74.01
2022-10-05T00:47:08.385Z,74.65
2022-10-05T00:50:02.274Z,76.32
2022-10-05T00:52:45.530Z,74.20
2022-10-05T00:55:31.419Z,75.57
2022-10-05T00:58:17.215Z,73.48
2022-10-05T01:00:57.679Z,74.68
2022-10-05T01:04:01.120Z,77.17
2022-10-05T01:06:33.812Z,77.79
2022-10-05T01:10:23.796Z,78.27
2022-10-05T01:13:15.319Z,75.54
2022-10-05T01:16:04.125Z,77.13
2022-10-05T01:18:54.163Z,79.20
2022-10-05T01:21:26.876Z,78.58
2022-10-05T01:24:18.887Z,79.11
2022-10-05T01:27:43.064Z,79.66
2022-10-05T01:30:15.777Z,78.66
2022-10-05T01:33:22.627Z,79.79
2022-10-05T01:36:20.043Z,79.28
2022-10-05T01:39:27.343Z,79.31
2022-10-05T01:42:30.016Z,78.44
2022-10-05T01:45:39.203Z,79.95
2022-10-05T01:48:47.780Z,80.28
2022-10-05T01:51:37.926Z,79.00
2022-10-05T01:54:22.993Z,78.38
2022-10-05T01:57:14.628Z,77.27
2022-10-05T02:00:04.960Z,79.51
2022-10-05T02:03:09.784Z,78.98
2022-10-05T02:05:53.232Z,76.86
2022-10-05T02:08:43.892Z,77.29
2022-10-05T02:11:14.791Z,77.39
2022-10-05T02:13:49.575Z,80.91
2022-10-05T02:19:53.195Z,81.30
2022-10-05T02:22:49.031Z,79.15
2022-10-05T02:25:35.037Z,81.97
2022-10-05T02:28:43.277Z,83.16
2022-10-05T02:31:20.311Z,83.47
2022-10-05T02:33:48.880Z,83.87
2022-10-05T02:36:26.781Z,83.67
2022-10-05T02:39:41.298Z,84.06
2022-10-05T02:42:23.434Z,84.66
2022-10-05T02:45:36.595Z,86.66
2022-10-05T02:48:34.994Z,85.01
2022-10-05T02:51:08.949Z,84.87
2022-10-05T02:54:00.679Z,84.79
2022-10-05T02:56:51.112Z,84.96
2022-10-05T02:59:40.365Z,86.17
2022-10-05T03:02:31.659Z,85.98
2022-10-05T03:05:35.799Z,85.66
2022-10-05T03:08:27.392Z,85.30
2022-10-05T03:11:25.707Z,85.58
2022-10-05T03:14:25.846Z,86.03
2022-10-05T03:17:13.051Z,86.73
2022-10-05T03:20:17.422Z,85.49
2022-10-05T03:23:04.712Z,85.80
2022-10-05T03:25:59.678Z,84.39
2022-10-05T03:29:01.488Z,84.26
2022-10-05T03:32:00.225Z,84.43
2022-10-05T03:34:48.955Z,84.87
2022-10-05T03:37:42.883Z,86.11
2022-10-05T03:40:24.727Z,85.58
2022-10-05T03:43:07.345Z,83.43
2022-10-05T03:46:18.538Z,82.91
2022-10-05T03:49:14.327Z,85.28
2022-10-05T03:52:23.416Z,83.79
2022-10-05T03:55:46.774Z,82.43
2022-10-05T03:58:42.581Z,83.34
2022-10-05T04:01:16.589Z,85.19
2022-10-05T04:03:59.544Z,85.30
2022-10-05T04:06:35.358Z,85.25
2022-10-05T04:09:21.248Z,83.65
2022-10-05T04:12:15.333Z,85.70
2022-10-05T04:14:50.031Z,86.03
2022-10-05T04:17:31.932Z,85.08
2022-10-05T04:20:22.615Z,85.61
2022-10-05T04:23:10.898Z,85.31
2022-10-05T04:25:54.023Z,85.18
2022-10-05T04:28:42.015Z,83.56
2022-10-05T04:31:17.382Z,85.37
2022-10-05T04:33:57.060Z,85.72
2022-10-05T04:36:41.081Z,83.56
2022-10-05T04:39:38.877Z,86.50
2022-10-05T04:42:27.180Z,84.50
2022-10-05T04:45:37.064Z,84.41
2022-10-05T04:48:12.808Z,83.17
2022-10-05T04:51:19.262Z,82.84
2022-10-05T04:54:03.989Z,83.97
2022-10-05T04:56:41.881Z,83.76
2022-10-05T05:00:13.730Z,83.81
2022-10-05T05:02:43.726Z,84.55
2022-10-05T05:06:16.021Z,83.59
2022-10-05T05:09:33.057Z,85.77
2022-10-05T05:12:27.542Z,82.82
2022-10-05T05:15:18.609Z,83.69
2022-10-05T05:18:17.153Z,82.81
2022-10-05T05:21:01.552Z,83.27
2022-10-05T05:24:19.458Z,84.71
2022-10-05T05:26:59.562Z,81.42
2022-10-05T05:29:54.827Z,82.90
2022-10-05T05:32:58.832Z,83.34
2022-10-05T05:35:41.405Z,80.81
2022-10-05T05:38:11.782Z,84.16
2022-10-05T05:41:12.672Z,82.25
2022-10-05T05:44:13.247Z,82.92
2022-10-05T05:47:09.987Z,82.10
2022-10-05T05:50:07.331Z,84.45
2022-10-05T05:52:46.170Z,83.59
2022-10-05T05:55:29.721Z,84.89
2022-10-05T05:58:09.136Z,82.36
2022-10-05T06:00:54.704Z,83.13
2022-10-05T06:03:38.355Z,83.61
2022-10-05T06:06:18.665Z,82.85
2022-10-05T06:08:58.633Z,82.41
2022-10-05T06:12:01.665Z,81.90
2022-10-05T06:14:44.911Z,82.81
2022-10-05T06:17:27.136Z,81.32
2022-10-05T06:20:02.524Z,81.38
2022-10-05T06:22:45.704Z,81.04
2022-10-05T06:25:23.150Z,82.22
2022-10-05T06:28:12.288Z,80.88
2022-10-05T06:31:20.527Z,82.09
2022-10-05T06:34:15.719Z,79.84
2022-10-05T06:36:50.551Z,80.02
2022-10-05T06:39:47.690Z,79.91
2022-10-05T06:43:10.055Z,79.85
2022-10-05T06:46:23.625Z,80.31
2022-10-05T06:49:25.154Z,79.98
2022-10-05T06:52:26.043Z,81.88
2022-10-05T06:55:26.385Z,81.13
2022-10-05T06:58:41.360Z,81.26
2022-10-05T07:01:35.852Z,81.39
2022-10-05T07:04:37.356Z,79.84
2022-10-05T07:07:27.669Z,81.00
2022-10-05T07:10:19.272Z,80.06
2022-10-05T07:13:33.515Z,81.88
2022-10-05T07:16:23.865Z,79.36
2022-10-05T07:19:38.905Z,80.81
2022-10-05T07:22:34.936Z,81.19
2022-10-05T07:25:08.585Z,80.31
2022-10-05T07:27:50.935Z,80.84
2022-10-05T07:30:19.966Z,79.82
2022-10-05T07:33:12.904Z,78.74
2022-10-05T07:36:42.963Z,82.67
2022-10-05T07:39:58.564Z,80.19
2022-10-05T07:42:52.296Z,79.33
2022-10-05T07:45:45.772Z,79.30
2022-10-05T07:49:00.571Z,79.43
2022-10-05T07:51:46.352Z,79.79
2022-10-05T07:54:44.579Z,82.40
2022-10-05T07:57:38.852Z,79.49
2022-10-05T08:00:18.430Z,80.11
2022-10-05T08:03:06.398Z,77.35
2022-10-05T08:05:40.698Z,78.54
2022-10-05T08:08:12.326Z,81.15
2022-10-05T08:11:27.628Z,76.53
2022-10-05T08:13:55.966Z,76.50
2022-10-05T08:16:30.613Z,77.85
2022-10-05T08:19:15.416Z,77.80
2022-10-05T08:21:50.928Z,76.10
2022-10-05T08:24:49.786Z,76.12
2022-10-05T08:27:54.548Z,75.54
2022-10-05T08:30:21.617Z,74.87
2022-10-05T08:32:59.029Z,74.42
2022-10-05T08:35:46.018Z,74.67
2022-10-05T08:38:18.819Z,72.60
2022-10-05T08:41:25.216Z,72.63
2022-10-05T08:44:42.066Z,73.57
2022-10-05T08:47:37.234Z,72.55
2022-10-05T08:50:24.261Z,71.81
2022-10-05T08:53:46.809Z,70.03
2022-10-05T08:56:35.586Z,72.03
2022-10-05T08:59:26.486Z,71.80
2022-10-05T09:02:03.081Z,69.79
2022-10-05T09:04:58.083Z,69.86
2022-10-05T09:07:59.540Z,68.87
2022-10-05T09:11:12.849Z,64.25
2022-10-05T09:14:04.425Z,62.63
2022-10-05T09:16:51.279Z,65.56
2022-10-05T09:20:10.062Z,67.83
2022-10-05T09:23:32.056Z,62.63
2022-10-05T09:26:43.028Z,62.21
2022-10-05T09:29:40.824Z,63.46
2022-10-05T09:33:15.693Z,61.23
2022-10-05T09:36:27.681Z,60.79
2022-10-05T09:39:08.897Z,61.49
2022-10-05T09:42:17.836Z,61.28
2022-10-05T09:45:29.220Z,60.11
2022-10-05T09:48:47.876Z,59.62
2022-10-05T09:51:53.859Z,60.24
2022-10-05T09:54:38.877Z,55.26
2022-10-05T09:57:50.836Z,57.50
2022-10-05T10:00:41.138Z,56.49
2022-10-05T10:03:08.170Z,56.04
2022-10-05T10:05:39.390Z,56.00
2022-10-05T10:08:40.905Z,53.90
2022-10-05T10:12:04.328Z,55.24
2022-10-05T10:15:01.913Z,55.64
2022-10-05T10:18:07.360Z,58.41
2022-10-05T10:21:06.662Z,57.36
2022-10-05T10:24:15.860Z,56.61
2022-10-05T10:27:16.353Z,55.67
2022-10-05T10:29:43.483Z,60.43
2022-10-05T10:32:48.301Z,57.94
2022-10-05T10:35:22.476Z,56.93
2022-10-05T10:38:34.870Z,53.43
2022-10-05T10:41:14.481Z,52.78
2022-10-05T10:44:32.827Z,54.47
2022-10-05T10:47:35.440Z,54.51
2022-10-05T10:50:28.390Z,53.86
2022-10-05T10:53:38.703Z,53.57
2022-10-05T10:56:48.285Z,54.20
2022-10-05T10:59:54.473Z,56.30
2022-10-05T11:02:37.329Z,53.33
2022-10-05T11:05:56.790Z,53.02
2022-10-05T11:08:53.860Z,53.04
2022-10-05T11:11:51.305Z,52.84
2022-10-05T11:15:07.493Z,55.08
2022-10-05T11:18:17.388Z,52.96
2022-10-05T11:21:26.318Z,53.34
2022-10-05T11:24:39.517Z,53.60
2022-10-05T11:27:50.299Z,52.08
2022-10-05T11:30:54.480Z,53.48
2022-10-05T11:33:48.975Z,53.27
2022-10-05T11:36:40.715Z,53.44
2022-10-05T11:39:44.220Z,52.60
2022-10-05T11:43:02.224Z,53.20
2022-10-05T11:45:50.580Z,53.10
2022-10-05T11:48:38.835Z,53.49
2022-10-05T11:51:14.675Z,52.94
2022-10-05T11:54:09.268Z,51.09
2022-10-05T11:56:43.946Z,52.96
2022-10-05T11:59:41.815Z,52.57
2022-10-05T12:02:14.477Z,53.14
2022-10-05T12:05:02.083Z,51.91
2022-10-05T12:07:36.614Z,52.54
2022-10-05T12:10:36.944Z,52.08
2022-10-05T12:13:53.081Z,54.12
2022-10-05T12:16:32.539Z,52.22
2022-10-05T12:19:18.336Z,52.86
2022-10-05T12:22:04.619Z,50.79
2022-10-05T12:24:38.006Z,51.36
2022-10-05T12:27:15.541Z,51.70
2022-10-05T12:30:25.281Z,51.25
2022-10-05T12:33:21.463Z,52.08
2022-10-05T12:36:05.730Z,51.34
2022-10-05T12:38:57.781Z,52.67
2022-10-05T12:41:55.125Z,53.21
2022-10-05T12:44:52.726Z,51.77
2022-10-05T12:47:39.876Z,50.83
2022-10-05T12:50:46.396Z,53.58
2022-10-05T12:53:37.077Z,51.18
2022-10-05T12:56:21.766Z,51.13
2022-10-05T12:59:07.704Z,53.01
2022-10-05T13:01:43.294Z,52.82
2022-10-05T13:04:47.141Z,52.00
2022-10-05T13:07:47.663Z,49.59
2022-10-05T13:10:50.517Z,50.01
2022-10-05T13:14:07.758Z,48.64
2022-10-05T13:16:39.642Z,48.64
2022-10-05T13:19:40.626Z,49.04
2022-10-05T13:22:34.351Z,48.88
2022-10-05T13:25:17.624Z,50.87
2022-10-05T13:28:15.575Z,49.93
2022-10-05T13:31:01.180Z,49.48
2022-10-05T13:33:53.129Z,50.85
2022-10-05T13:36:42.471Z,48.60
2022-10-05T13:40:35.278Z,48.60
2022-10-05T13:43:50.359Z,50.73
2022-10-05T13:46:46.428Z,50.73
2022-10-05T13:49:35.691Z,51.31
2022-10-05T13:52:29.403Z,50.86
2022-10-05T13:55:12.219Z,49.33
2022-10-05T13:58:13.974Z,50.46
2022-10-05T14:01:02.171Z,50.44
2022-10-05T14:03:35.187Z,50.46
2022-10-05T14:06:26.378Z,49.78
2022-10-05T14:08:53.995Z,50.72
2022-10-05T14:11:53.890Z,49.90
2022-10-05T14:14:29.564Z,49.08
2022-10-05T14:16:59.855Z,50.65
2022-10-05T14:19:45.818Z,50.44
2022-10-05T14:22:24.326Z,51.11
2022-10-05T14:25:01.934Z,49.41
2022-10-05T14:27:51.451Z,50.50
2022-10-05T14:30:25.830Z,50.95
2022-10-05T14:33:03.381Z,49.54
2022-10-05T14:35:45.552Z,50.35
2022-10-05T14:38:52.403Z,51.38
2022-10-05T14:41:28.108Z,50.70
2022-10-05T14:44:18.191Z,49.96
2022-10-05T14:46:55.170Z,50.87
2022-10-05T14:49:33.170Z,50.31
2022-10-05T14:52:00.293Z,51.49
2022-10-05T14:54:57.565Z,50.12
2022-10-05T14:57:32.060Z,52.33
2022-10-05T15:00:13.534Z,51.21
2022-10-05T15:02:52.379Z,52.09
2022-10-05T15:05:36.001Z,52.24
2022-10-05T15:08:19.499Z,52.52
2022-10-05T15:11:00.340Z,52.21
2022-10-05T15:13:36.302Z,52.80
2022-10-05T15:16:12.943Z,53.48
2022-10-05T15:18:40.193Z,52.51
2022-10-05T15:21:45.234Z,52.60
2022-10-05T15:24:21.221Z,54.01
2022-10-05T15:26:52.961Z,53.30
2022-10-05T15:29:51.907Z,52.97
2022-10-05T15:32:31.050Z,53.10
2022-10-05T15:35:33.192Z,53.55
2022-10-05T15:38:25.794Z,53.90
2022-10-05T15:41:08.376Z,53.01
2022-10-05T15:43:46.917Z,53.82
2022-10-05T15:46:34.501Z,53.92
2022-10-05T15:49:51.761Z,54.39
2022-10-05T15:52:40.750Z,54.13
2022-10-05T15:55:41.204Z,55.45
2022-10-05T15:58:46.923Z,55.24
2022-10-05T16:01:47.629Z,55.74
2022-10-05T16:04:40.908Z,57.30
2022-10-05T16:07:43.341Z,56.35
2022-10-05T16:10:21.764Z,57.15
2022-10-05T16:13:06.596Z,57.66
2022-10-05T16:16:12.155Z,57.83
2022-10-05T16:18:38.966Z,58.58
2022-10-05T16:21:39.094Z,58.58
2022-10-05T16:24:46.054Z,58.58
2022-10-05T16:27:52.667Z,59.44
2022-10-05T16:30:23.168Z,59.58
2022-10-05T16:33:22.487Z,59.24
2022-10-05T16:36:53.177Z,59.82
2022-10-05T16:39:48.559Z,60.19
2022-10-05T16:42:27.473Z,61.08
2022-10-05T16:45:29.486Z,60.98
2022-10-05T16:48:13.490Z,62.14
2022-10-05T16:51:24.139Z,62.56
2022-10-05T16:54:20.203Z,64.49
2022-10-05T16:57:11.115Z,65.31
2022-10-05T17:00:23.567Z,64.54
2022-10-05T17:03:02.332Z,62.03
2022-10-05T17:06:20.357Z,62.34
2022-10-05T17:09:41.146Z,63.28
2022-10-05T17:13:16.386Z,63.43
2022-10-05T17:16:10.556Z,65.31
2022-10-05T17:19:15.237Z,64.58
2022-10-05T17:22:10.325Z,65.34
2022-10-05T17:25:18.335Z,65.52
2022-10-05T17:27:54.261Z,65.53
2022-10-05T17:30:27.624Z,65.44
2022-10-05T17:33:21.236Z,65.78
2022-10-05T17:36:17.078Z,65.81
2022-10-05T17:39:12.174Z,65.48
2022-10-05T17:41:39.352Z,65.59
2022-10-05T17:44:21.301Z,65.31
2022-10-05T17:46:56.906Z,64.67
2022-10-05T17:50:14.929Z,64.71
2022-10-05T17:53:02.766Z,64.95
2022-10-05T17:56:03.310Z,65.17
2022-10-05T17:58:30.096Z,64.37
2022-10-05T18:00:56.965Z,64.41
2022-10-05T18:03:42.929Z,64.35
2022-10-05T18:06:34.206Z,64.62
2022-10-05T18:09:24.641Z,64.70
2022-10-05T18:12:24.447Z,65.72
2022-10-05T18:15:05.804Z,65.20
2022-10-05T18:17:51.302Z,64.80
2022-10-05T18:20:24.580Z,65.99
2022-10-05T18:23:13.434Z,66.57
2022-10-05T18:25:51.706Z,66.65
2022-10-05T18:28:49.416Z,66.98
2022-10-05T18:31:35.751Z,68.65
2022-10-05T18:34:28.659Z,68.91
2022-10-05T18:37:31.669Z,67.94
2022-10-05T18:40:34.339Z,67.96
2022-10-05T18:43:24.864Z,68.02
2022-10-05T18:46:21.941Z,67.78
2022-10-05T18:49:27.077Z,67.89
2022-10-05T18:52:20.621Z,68.33
2022-10-05T18:55:34.530Z,67.11
2022-10-05T18:58:38.586Z,69.45
2022-10-05T19:01:50.513Z,69.53
2022-10-05T19:04:50.915Z,68.72
2022-10-05T19:07:23.923Z,68.94
2022-10-05T19:10:34.461Z,68.12
2022-10-05T19:13:38.932Z,69.15
2022-10-05T19:16:38.373Z,69.20
2022-10-05T19:20:01.768Z,68.47
2022-10-05T19:23:10.110Z,68.84
2022-10-05T19:25:50.354Z,67.84
2022-10-05T19:28:49.366Z,69.83
2022-10-05T19:31:37.555Z,68.76
2022-10-05T19:34:24.925Z,67.48
2022-10-05T19:37:23.310Z,66.86
2022-10-05T19:40:21.653Z,66.40
2022-10-05T19:43:23.255Z,67.18
2022-10-05T19:46:22.669Z,67.84
2022-10-05T19:48:54.193Z,67.15
2022-10-05T19:51:25.432Z,67.49
2022-10-05T19:53:55.900Z,66.31
2022-10-05T19:56:45.614Z,65.81
2022-10-05T19:59:18.880Z,66.20
2022-10-05T20:01:56.297Z,68.63
2022-10-05T20:04:40.773Z,65.60
2022-10-05T20:07:17.521Z,67.61
2022-10-05T20:10:18.508Z,68.93
2022-10-05T20:12:57.465Z,67.08
2022-10-05T20:15:54.955Z,65.66
2022-10-05T20:19:08.108Z,65.82
2022-10-05T20:21:50.632Z,67.02
2022-10-05T20:24:25.630Z,69.31
2022-10-05T20:27:06.510Z,67.62
2022-10-05T20:29:39.354Z,66.70
2022-10-05T20:32:17.948Z,67.46
2022-10-05T20:34:47.738Z,67.80
2022-10-05T20:37:18.102Z,67.32
2022-10-05T20:39:45.511Z,66.51
2022-10-05T20:42:13.515Z,66.82
2022-10-05T20:44:42.405Z,66.72
2022-10-05T20:47:10.395Z,66.18
2022-10-05T20:49:40.967Z,67.05
2022-10-05T20:52:10.894Z,66.45
2022-10-05T20:54:39.273Z,66.72
2022-10-05T20:57:07.189Z,65.40
2022-10-05T20:59:35.085Z,65.06
2022-10-05T21:02:04.051Z,65.66
2022-10-05T21:04:40.029Z,68.68
2022-10-05T21:07:08.683Z,68.37
2022-10-05T21:09:38.240Z,65.74
2022-10-05T21:12:05.210Z,66.32
2022-10-05T21:14:34.512Z,66.86
2022-10-05T21:17:02.257Z,66.15
2022-10-05T21:19:30.306Z,66.52
2022-10-05T21:22:02.444Z,64.87
2022-10-05T21:24:29.374Z,64.90
2022-10-05T21:26:57.722Z,64.74
2022-10-05T21:29:25.631Z,64.47
2022-10-05T21:31:52.811Z,64.07
2022-10-05T21:34:19.916Z,65.38
2022-10-05T21:36:46.825Z,66.31
2022-10-05T21:39:13.796Z,64.97
2022-10-05T21:41:40.713Z,65.02
2022-10-05T21:44:07.939Z,64.73
2022-10-05T21:46:38.737Z,66.32
2022-10-05T21:49:07.441Z,66.01
2022-10-05T21:51:35.763Z,65.03
2022-10-05T21:54:15.596Z,64.42
2022-10-05T21:56:47.967Z,63.85
2022-10-05T21:59:19.106Z,64.84
2022-10-05T22:01:46.165Z,66.00
2022-10-05T22:04:13.689Z,66.35
2022-10-05T22:06:40.867Z,65.78
2022-10-05T22:09:07.900Z,65.41
2022-10-05T22:11:35.014Z,65.72
2022-10-05T22:14:02.778Z,66.17
2022-10-05T22:16:34.574Z,65.90
2022-10-05T22:19:10.823Z,66.92
2022-10-05T22:21:41.830Z,67.52
2022-10-05T22:24:13.156Z,65.98
2022-10-05T22:26:44.775Z,67.01
2022-10-05T22:29:12.656Z,66.04
2022-10-05T22:31:39.991Z,67.02
2022-10-05T22:34:06.950Z,65.66
2022-10-05T22:36:35.621Z,66.93
2022-10-05T22:39:02.848Z,66.40
2022-10-05T22:41:29.816Z,66.75
2022-10-05T22:43:56.698Z,66.17
2022-10-05T22:46:24.125Z,65.08
2022-10-05T22:48:51.265Z,65.10
2022-10-05T22:51:18.439Z,65.23
2022-10-05T22:53:45.495Z,65.06
2022-10-05T22:56:13.850Z,66.14
2022-10-05T22:58:42.950Z,65.21
2022-10-05T23:01:14.567Z,65.13
2022-10-05T23:03:42.397Z,64.79
2022-10-05T23:06:14.035Z,65.08
2022-10-05T23:08:43.739Z,65.31
2022-10-05T23:11:21.930Z,66.78
2022-10-05T23:13:50.708Z,66.92
2022-10-05T23:16:21.393Z,67.03
2022-10-05T23:18:50.806Z,65.41
2022-10-05T23:21:20.150Z,65.40
2022-10-05T23:23:50.908Z,63.83
2022-10-05T23:26:21.740Z,63.12
2022-10-05T23:28:50.059Z,64.33
2022-10-05T23:31:21.040Z,66.63
2022-10-05T23:33:48.443Z,67.21
2022-10-05T23:36:19.372Z,67.97
2022-10-05T23:38:46.923Z,67.28
2022-10-05T23:41:14.398Z,67.04
2022-10-05T23:43:41.872Z,66.84
2022-10-05T23:46:09.713Z,68.43
2022-10-05T23:48:38.031Z,69.20
2022-10-05T23:51:11.844Z,69.97
2022-10-05T23:53:40.022Z,69.43
2022-10-05T23:56:07.513Z,69.09
2022-10-05T23:58:34.388Z,68.26
